KEYW

Key West International Airport

Key West, Florida, USA
METAR KEYW 120953Z AUTO 04006KT 10SM 16/10 A3022 RMK AO2 SLP231 T01610100 $
Observed Flight Rules
Dec-12 @ 09:53 UTC (an hour ago)
Wind Visibility
40° at 6 knots 10 miles
Temperatures Readings
Current 16°C / 61°F
Dewpoint 10°C / 50°F
Humidity 68%
Altimeter 30.22" Hg
Pressure 1023.1 hPa
Elevation 5
METAR KEYW 120953Z AUTO 04006KT 10SM 16/10 A3022 RMK AO2 SLP231 T01610100 $
Observed Flight Rules
Dec-12 @ 09:53 UTC
(an hour ago)
Wind Visibility
40° at 6 knots 10 miles
Temperature Dewpoint
16°C / 61°F 10°C / 50°F
Humidity Altimeter Pressure
68% 30.22" Hg 1023.1 hPa